createdAt,value
2023-09-23T00:02:07.896Z,16.79
2023-09-23T00:07:10.831Z,16.99
2023-09-23T00:12:13.902Z,16.97
2023-09-23T00:17:16.491Z,16.64
2023-09-23T00:22:20.094Z,16.55
2023-09-23T00:27:23.250Z,16.44
2023-09-23T00:32:25.826Z,16.42
2023-09-23T00:37:28.839Z,16.36
2023-09-23T00:42:33.947Z,15.79
2023-09-23T00:47:37.472Z,15.48
2023-09-23T00:52:40.480Z,15.29
2023-09-23T00:57:43.383Z,15.09
2023-09-23T01:02:49.010Z,15.03
2023-09-23T01:07:52.673Z,14.96
2023-09-23T01:12:55.241Z,15.10
2023-09-23T01:18:09.118Z,15.04
2023-09-23T01:23:18.351Z,15.08
2023-09-23T01:28:21.390Z,14.94
2023-09-23T01:33:25.644Z,14.82
2023-09-23T01:38:28.548Z,14.69
2023-09-23T01:43:31.202Z,14.88
2023-09-23T01:48:34.590Z,14.83
2023-09-23T01:53:37.438Z,15.02
2023-09-23T01:58:39.975Z,15.09
2023-09-23T02:03:43.721Z,14.95
2023-09-23T02:08:47.228Z,14.76
2023-09-23T02:13:51.314Z,14.75
2023-09-23T02:18:54.764Z,14.63
2023-09-23T02:23:58.088Z,14.54
2023-09-23T02:29:00.796Z,14.69
2023-09-23T02:34:03.989Z,14.59
2023-09-23T02:39:07.679Z,14.63
2023-09-23T02:44:10.307Z,14.53
2023-09-23T02:49:13.486Z,14.50
2023-09-23T02:54:19.271Z,14.40
2023-09-23T02:59:27.986Z,14.25
2023-09-23T03:04:33.886Z,14.28
2023-09-23T03:09:45.937Z,14.32
2023-09-23T03:14:53.138Z,14.46
2023-09-23T03:19:56.185Z,14.10
2023-09-23T03:24:59.314Z,14.30
2023-09-23T03:30:04.722Z,14.40
2023-09-23T03:35:15.540Z,14.37
2023-09-23T03:40:26.810Z,14.28
2023-09-23T03:45:34.833Z,14.34
2023-09-23T03:50:38.013Z,14.43
2023-09-23T03:55:42.169Z,14.23
2023-09-23T04:00:48.833Z,14.44
2023-09-23T04:05:59.264Z,14.39
2023-09-23T04:11:07.145Z,14.41
2023-09-23T04:16:10.747Z,14.39
2023-09-23T04:21:15.015Z,14.38
2023-09-23T04:26:22.904Z,14.02
2023-09-23T04:31:26.592Z,14.00
2023-09-23T04:36:31.280Z,14.08
2023-09-23T04:41:34.961Z,13.99
2023-09-23T04:46:39.055Z,14.14
2023-09-23T04:51:44.366Z,14.21
2023-09-23T04:56:49.070Z,14.37
2023-09-23T05:01:52.243Z,14.33
2023-09-23T05:06:54.845Z,14.39
2023-09-23T05:11:57.592Z,14.36
2023-09-23T05:17:00.021Z,14.59
2023-09-23T05:22:04.650Z,14.50
2023-09-23T05:27:07.958Z,14.26
2023-09-23T05:32:12.329Z,14.41
2023-09-23T05:37:18.175Z,14.71
2023-09-23T05:48:58.761Z,14.12
2023-09-23T05:54:03.055Z,14.48
2023-09-23T05:59:09.570Z,14.68
2023-09-23T06:04:12.039Z,14.75
2023-09-23T06:09:16.733Z,15.03
2023-09-23T06:14:19.300Z,15.10
2023-09-23T06:19:22.058Z,15.06
2023-09-23T06:24:24.647Z,15.38
2023-09-23T06:29:28.497Z,15.53
2023-09-23T06:34:32.193Z,15.89
2023-09-23T06:39:34.945Z,16.13
2023-09-23T06:44:40.282Z,16.38
2023-09-23T06:49:43.958Z,16.26
2023-09-23T06:54:48.705Z,16.48
2023-09-23T06:59:53.284Z,16.14
2023-09-23T07:04:55.933Z,16.01
2023-09-23T07:09:58.831Z,15.93
2023-09-23T07:15:02.322Z,16.35
2023-09-23T07:20:06.459Z,16.08
2023-09-23T07:25:10.266Z,16.50
2023-09-23T07:30:15.061Z,16.50
2023-09-23T07:35:21.548Z,16.64
2023-09-23T07:40:24.488Z,16.99
2023-09-23T07:45:27.171Z,16.94
2023-09-23T07:50:30.770Z,16.95
2023-09-23T07:55:33.381Z,17.06
2023-09-23T08:00:36.558Z,17.07
2023-09-23T08:05:39.655Z,17.06
2023-09-23T08:10:42.546Z,17.19
2023-09-23T08:15:47.084Z,17.34
2023-09-23T08:20:49.957Z,17.56
2023-09-23T08:25:53.768Z,17.39
2023-09-23T08:30:56.587Z,17.51
2023-09-23T08:35:59.443Z,17.49
2023-09-23T08:41:05.297Z,17.83
2023-09-23T08:46:09.238Z,17.91
2023-09-23T08:51:13.670Z,18.01
2023-09-23T08:56:16.800Z,18.48
2023-09-23T09:01:19.762Z,18.33
2023-09-23T09:06:29.303Z,18.44
2023-09-23T09:11:33.358Z,18.42
2023-09-23T09:16:36.665Z,18.54
2023-09-23T09:21:39.876Z,18.13
2023-09-23T09:26:42.647Z,18.52
2023-09-23T09:31:51.314Z,18.46
2023-09-23T09:36:59.064Z,18.66
2023-09-23T09:42:06.993Z,18.93
2023-09-23T09:47:12.108Z,19.16
2023-09-23T09:52:16.704Z,19.24
2023-09-23T09:57:19.370Z,19.53
2023-09-23T10:02:25.671Z,19.58
2023-09-23T10:07:56.033Z,19.32
2023-09-23T10:13:19.928Z,19.27
2023-09-23T10:18:22.558Z,19.42
2023-09-23T10:23:25.438Z,19.37
2023-09-23T10:28:32.276Z,19.84
2023-09-23T10:33:37.819Z,19.88
2023-09-23T10:38:41.388Z,20.17
2023-09-23T10:43:45.214Z,19.99
2023-09-23T10:48:48.293Z,19.95
2023-09-23T10:53:51.385Z,20.02
2023-09-23T10:58:55.146Z,19.69
2023-09-23T11:04:01.754Z,19.87
2023-09-23T11:09:08.021Z,19.69
2023-09-23T11:14:15.060Z,20.38
2023-09-23T11:19:19.062Z,19.97
2023-09-23T11:24:22.362Z,19.91
2023-09-23T11:29:26.039Z,20.09
2023-09-23T11:34:32.065Z,19.96
2023-09-23T11:39:36.918Z,19.97
2023-09-23T11:44:40.157Z,19.76
2023-09-23T11:49:42.832Z,20.17
2023-09-23T11:54:45.578Z,20.10
2023-09-23T11:59:48.527Z,19.95
2023-09-23T12:04:52.321Z,19.90
2023-09-23T12:09:55.443Z,19.71
2023-09-23T12:14:58.899Z,19.91
2023-09-23T12:20:03.824Z,19.99
2023-09-23T12:25:07.686Z,20.18
2023-09-23T12:30:11.804Z,20.63
2023-09-23T12:35:15.283Z,20.85
2023-09-23T12:40:18.408Z,20.85
2023-09-23T12:45:24.016Z,20.96
2023-09-23T12:50:27.542Z,21.16
2023-09-23T12:55:30.604Z,20.45
2023-09-23T13:00:33.513Z,20.63
2023-09-23T13:05:37.057Z,20.66
2023-09-23T13:10:39.520Z,20.48
2023-09-23T13:15:42.284Z,20.46
2023-09-23T13:20:46.082Z,20.88
2023-09-23T13:25:49.549Z,21.00
2023-09-23T13:30:52.654Z,21.25
2023-09-23T13:35:55.133Z,21.35
2023-09-23T13:40:59.572Z,21.14
2023-09-23T13:46:05.275Z,20.73
2023-09-23T13:51:10.503Z,20.39
2023-09-23T13:56:13.625Z,20.56
2023-09-23T14:01:16.529Z,20.46
2023-09-23T14:06:19.237Z,20.65
2023-09-23T14:11:22.546Z,20.22
2023-09-23T14:16:25.563Z,20.09
2023-09-23T14:21:28.930Z,20.22
2023-09-23T14:26:33.789Z,20.26
2023-09-23T14:31:36.714Z,20.07
2023-09-23T14:36:39.445Z,19.87
2023-09-23T14:41:42.158Z,19.60
2023-09-23T14:46:47.987Z,19.73
2023-09-23T14:51:51.020Z,19.44
2023-09-23T14:56:54.179Z,18.85
2023-09-23T15:01:56.725Z,18.55
2023-09-23T15:07:01.332Z,18.48
2023-09-23T15:12:06.553Z,18.36
2023-09-23T15:17:09.624Z,18.09
2023-09-23T15:22:12.603Z,18.14
2023-09-23T15:27:15.903Z,18.35
2023-09-23T15:32:22.525Z,17.85
2023-09-23T15:37:25.927Z,17.64
2023-09-23T15:42:29.877Z,17.70
2023-09-23T15:47:33.490Z,17.68
2023-09-23T15:52:36.862Z,17.22
2023-09-23T15:57:40.639Z,17.23
2023-09-23T16:02:43.522Z,17.51
2023-09-23T16:07:46.181Z,17.20
2023-09-23T16:12:49.522Z,17.24
2023-09-23T16:17:55.661Z,17.10
2023-09-23T16:22:58.656Z,17.00
2023-09-23T16:28:01.613Z,16.76
2023-09-23T16:33:04.930Z,16.82
2023-09-23T16:38:08.676Z,16.99
2023-09-23T16:43:12.686Z,16.67
2023-09-23T16:48:15.980Z,16.70
2023-09-23T16:53:19.078Z,16.73
2023-09-23T16:58:21.743Z,16.82
2023-09-23T17:03:25.549Z,16.65
2023-09-23T17:08:29.439Z,16.58
2023-09-23T17:13:32.578Z,16.42
2023-09-23T17:18:36.362Z,16.29
2023-09-23T17:23:39.451Z,16.28
2023-09-23T17:28:42.316Z,16.12
2023-09-23T17:33:45.183Z,16.21
2023-09-23T17:38:48.897Z,16.05
2023-09-23T17:43:51.993Z,15.91
2023-09-23T17:48:55.131Z,15.92
2023-09-23T17:53:57.890Z,15.65
2023-09-23T17:59:03.307Z,15.43
2023-09-23T18:04:08.591Z,15.33
2023-09-23T18:09:14.670Z,15.17
2023-09-23T18:14:20.396Z,15.15
2023-09-23T18:19:25.261Z,14.79
2023-09-23T18:24:28.930Z,15.09
2023-09-23T18:29:33.637Z,14.68
2023-09-23T18:34:37.528Z,14.88
2023-09-23T18:39:43.082Z,14.87
2023-09-23T18:44:46.026Z,14.76
2023-09-23T18:49:49.273Z,14.35
2023-09-23T18:54:52.499Z,14.41
2023-09-23T18:59:56.429Z,14.30
2023-09-23T19:04:59.416Z,14.32
2023-09-23T19:10:32.325Z,14.17
2023-09-23T19:15:36.209Z,14.21
2023-09-23T19:20:39.018Z,14.04
2023-09-23T19:25:42.960Z,13.99
2023-09-23T19:30:46.351Z,13.96
2023-09-23T19:35:50.785Z,13.93
2023-09-23T19:40:54.307Z,13.95
2023-09-23T19:45:57.624Z,13.89
2023-09-23T19:51:00.778Z,13.83
2023-09-23T19:56:03.097Z,13.66
2023-09-23T20:01:06.407Z,13.54
2023-09-23T20:06:10.695Z,13.47
2023-09-23T20:11:20.747Z,13.36
2023-09-23T20:16:23.675Z,13.26
2023-09-23T20:21:26.617Z,13.11
2023-09-23T20:26:29.609Z,12.86
2023-09-23T20:31:32.671Z,12.78
2023-09-23T20:36:36.492Z,12.78
2023-09-23T20:41:40.348Z,12.84
2023-09-23T20:46:44.566Z,12.77
2023-09-23T20:51:47.582Z,12.74
2023-09-23T20:56:50.282Z,12.55
2023-09-23T21:01:53.154Z,12.59
2023-09-23T21:06:55.783Z,12.51
2023-09-23T21:11:58.940Z,12.20
2023-09-23T21:17:03.578Z,12.25
2023-09-23T21:22:07.348Z,12.19
2023-09-23T21:27:10.599Z,12.15
2023-09-23T21:32:13.795Z,12.07
2023-09-23T21:37:17.751Z,12.07
2023-09-23T21:42:20.592Z,12.12
2023-09-23T21:47:23.431Z,12.08
2023-09-23T21:52:26.452Z,11.97
2023-09-23T21:57:29.983Z,11.88
2023-09-23T22:02:36.588Z,11.75
2023-09-23T22:07:39.336Z,11.69
2023-09-23T22:12:41.934Z,11.54
2023-09-23T22:17:44.819Z,11.48
2023-09-23T22:22:50.036Z,11.17
2023-09-23T22:27:56.355Z,11.11
2023-09-23T22:33:00.747Z,11.36
2023-09-23T22:38:04.608Z,11.16
2023-09-23T22:43:07.381Z,11.34
2023-09-23T22:48:11.864Z,11.39
2023-09-23T22:53:19.437Z,11.37
2023-09-23T22:58:22.889Z,11.38
2023-09-23T23:03:25.759Z,11.55
2023-09-23T23:08:30.288Z,11.61
2023-09-23T23:13:33.395Z,11.61
2023-09-23T23:18:36.167Z,11.55
2023-09-23T23:23:38.803Z,11.50
2023-09-23T23:28:41.267Z,11.48
2023-09-23T23:33:45.880Z,11.67
2023-09-23T23:38:48.741Z,11.46
2023-09-23T23:43:51.354Z,11.47
2023-09-23T23:48:53.869Z,11.51
2023-09-23T23:53:57.222Z,11.46
2023-09-23T23:59:02.457Z,11.61
